Terminal Aerodrome Forecast
Issued by NWS

Home | Current Version | Previous Version | Text Only | Print | Product List | Glossary On
Versions: 1 2 3 4 5 6 7 8 9 10 11 12 13 14 15 16 17 18 19 20 21
000
FTUS46 KLOX 012300 RRA
TAFOXR
TAF
KOXR 012340Z 0200/0224 27011KT P6SM SKC
     FM020100 27009KT P6SM BKN010
     FM020300 27005KT P6SM OVC009
     FM020600 VRB03KT 5SM BR OVC007
     FM021000 VRB03KT 4SM BR OVC004
     FM021700 25005KT 5SM BR OVC007
     FM021900 25008KT P6SM BKN012=

USA.gov is the U.S. government's official web portal to all federal, state and local government web resources and services.